createdAt,value
2023-01-26T04:01:02.648Z,5.70
2023-01-26T04:03:48.240Z,5.27
2023-01-26T04:06:34.787Z,6.20
2023-01-26T04:09:03.598Z,5.33
2023-01-26T04:11:31.976Z,6.47
2023-01-26T04:14:19.159Z,5.60
2023-01-26T04:17:06.530Z,6.13
2023-01-26T04:19:52.441Z,8.10
2023-01-26T04:22:20.525Z,5.07
2023-01-26T04:24:49.329Z,7.67
2023-01-26T04:27:17.238Z,6.07
2023-01-26T04:29:45.091Z,6.77
2023-01-26T04:32:14.355Z,6.27
2023-01-26T04:34:42.901Z,6.60
2023-01-26T04:37:20.511Z,6.50
2023-01-26T04:39:49.009Z,6.80
2023-01-26T04:42:18.020Z,4.23
2023-01-26T04:44:45.955Z,5.90
2023-01-26T04:47:15.193Z,7.27
2023-01-26T04:49:43.760Z,8.27
2023-01-26T04:52:12.693Z,7.50
2023-01-26T04:54:40.660Z,6.23
2023-01-26T04:57:09.258Z,5.50
2023-01-26T04:59:38.634Z,5.83
2023-01-26T05:02:06.733Z,7.80
2023-01-26T05:04:36.119Z,11.40
2023-01-26T05:07:04.972Z,6.67
2023-01-26T05:09:33.948Z,7.27
2023-01-26T05:12:32.980Z,8.70
2023-01-26T05:15:29.444Z,8.03
2023-01-26T05:18:06.022Z,5.20
2023-01-26T05:20:55.619Z,6.67
2023-01-26T05:23:28.145Z,8.23
2023-01-26T05:26:14.425Z,6.03
2023-01-26T05:29:02.522Z,8.90
2023-01-26T05:31:30.450Z,6.80
2023-01-26T05:34:02.213Z,6.00
2023-01-26T05:36:34.462Z,6.90
2023-01-26T05:39:02.291Z,7.23
2023-01-26T05:41:31.471Z,7.93
2023-01-26T05:44:17.964Z,7.23
2023-01-26T05:46:53.227Z,6.77
2023-01-26T05:49:21.118Z,8.57
2023-01-26T05:51:50.515Z,7.50
2023-01-26T05:54:18.687Z,13.23
2023-01-26T05:56:46.926Z,8.97
2023-01-26T05:59:15.052Z,8.97
2023-01-26T06:01:43.921Z,7.50
2023-01-26T06:04:12.694Z,8.30
2023-01-26T06:06:46.736Z,9.20
2023-01-26T06:09:28.831Z,9.80
2023-01-26T06:12:15.415Z,8.07
2023-01-26T06:14:58.187Z,8.43
2023-01-26T06:17:41.507Z,7.93
2023-01-26T06:20:12.628Z,9.40
2023-01-26T06:22:42.933Z,8.00
2023-01-26T06:25:12.878Z,9.03
2023-01-26T06:27:42.088Z,10.77
2023-01-26T06:30:17.581Z,11.87
2023-01-26T06:32:48.257Z,11.73
2023-01-26T06:35:18.010Z,12.10
2023-01-26T06:37:45.896Z,11.63
2023-01-26T06:40:15.506Z,10.43
2023-01-26T06:42:48.713Z,11.50
2023-01-26T06:45:20.496Z,10.70
2023-01-26T06:47:50.974Z,11.47
2023-01-26T06:50:21.520Z,10.53
2023-01-26T06:52:53.057Z,9.73
2023-01-26T06:55:39.087Z,9.67
2023-01-26T06:58:36.241Z,9.10
2023-01-26T07:01:39.128Z,9.33
2023-01-26T07:04:07.040Z,10.00
2023-01-26T07:06:34.964Z,10.53
2023-01-26T07:09:02.818Z,10.43
2023-01-26T07:11:32.693Z,10.50
2023-01-26T07:14:00.955Z,10.27
2023-01-26T07:16:28.921Z,19.85
2023-01-26T07:18:57.056Z,14.27
2023-01-26T07:21:24.936Z,12.53
2023-01-26T07:23:54.093Z,11.83
2023-01-26T07:26:22.244Z,11.00
2023-01-26T07:28:51.398Z,12.27
2023-01-26T07:31:19.344Z,11.63
2023-01-26T07:33:47.213Z,12.13
2023-01-26T07:36:15.020Z,11.37
2023-01-26T07:38:42.824Z,12.33
2023-01-26T07:41:13.771Z,13.00
2023-01-26T07:43:42.505Z,10.93
2023-01-26T07:46:12.219Z,9.73
2023-01-26T07:48:40.777Z,8.67
2023-01-26T07:51:10.973Z,11.07
2023-01-26T07:53:40.149Z,12.17
2023-01-26T07:56:10.122Z,12.40
2023-01-26T07:58:37.992Z,11.40
2023-01-26T08:01:08.118Z,10.87
2023-01-26T08:03:37.646Z,11.67
2023-01-26T08:06:06.340Z,13.13
2023-01-26T08:08:35.325Z,14.13
2023-01-26T08:11:04.186Z,22.53
2023-01-26T08:13:35.657Z,24.00
2023-01-26T08:16:05.350Z,14.90
2023-01-26T08:18:33.653Z,15.03
2023-01-26T08:21:02.841Z,15.93
2023-01-26T08:23:30.793Z,14.90
2023-01-26T08:26:02.334Z,14.03
2023-01-26T08:28:30.536Z,15.33
2023-01-26T08:31:04.055Z,13.53
2023-01-26T08:33:32.726Z,13.27
2023-01-26T08:36:03.940Z,15.43
2023-01-26T08:38:32.452Z,17.80
2023-01-26T08:41:00.607Z,20.40
2023-01-26T08:43:28.791Z,22.53
2023-01-26T08:45:56.820Z,17.40
2023-01-26T08:48:25.037Z,18.97
2023-01-26T08:50:55.690Z,16.17
2023-01-26T08:53:25.201Z,19.00
2023-01-26T08:55:53.542Z,18.50
2023-01-26T08:58:21.410Z,19.37
2023-01-26T09:00:49.374Z,20.03
2023-01-26T09:03:17.300Z,17.60
2023-01-26T09:05:45.159Z,15.97
2023-01-26T09:08:13.151Z,17.90
2023-01-26T09:10:45.109Z,19.23
2023-01-26T09:13:13.035Z,21.03
2023-01-26T09:15:40.853Z,18.03
2023-01-26T09:18:09.047Z,18.07
2023-01-26T09:20:38.365Z,16.93
2023-01-26T09:23:06.483Z,18.77
2023-01-26T09:25:38.038Z,19.77
2023-01-26T09:28:07.876Z,19.73
2023-01-26T09:30:35.983Z,17.60
2023-01-26T09:33:06.779Z,35.67
2023-01-26T09:35:34.665Z,24.63
2023-01-26T09:38:02.482Z,22.93
2023-01-26T09:40:38.530Z,16.63
2023-01-26T09:43:22.479Z,17.20
2023-01-26T09:46:01.492Z,18.53
2023-01-26T09:48:39.177Z,23.40
2023-01-26T09:51:11.533Z,20.87
2023-01-26T09:53:47.571Z,19.50
2023-01-26T09:56:19.463Z,20.67
2023-01-26T09:58:54.487Z,19.80
2023-01-26T10:01:30.806Z,22.37
2023-01-26T10:04:05.125Z,21.93
2023-01-26T10:06:34.895Z,17.50
2023-01-26T10:09:15.614Z,18.47
2023-01-26T10:11:47.265Z,18.30
2023-01-26T10:14:21.212Z,18.63
2023-01-26T10:16:53.980Z,18.63
2023-01-26T10:19:33.548Z,23.13
2023-01-26T10:22:07.126Z,23.97
2023-01-26T10:24:35.083Z,17.97
2023-01-26T10:27:02.966Z,18.20
2023-01-26T10:29:32.462Z,21.00
2023-01-26T10:32:00.319Z,21.30
2023-01-26T10:34:29.082Z,19.30
2023-01-26T10:37:03.218Z,20.10
2023-01-26T10:39:31.053Z,20.10
2023-01-26T10:42:00.097Z,18.60
2023-01-26T10:44:34.717Z,17.97
2023-01-26T10:47:14.756Z,19.80
2023-01-26T10:49:43.074Z,16.23
2023-01-26T10:52:22.112Z,17.43
2023-01-26T10:54:54.791Z,17.70
2023-01-26T10:57:28.931Z,17.83
2023-01-26T11:00:00.145Z,20.60
2023-01-26T11:02:30.295Z,16.93
2023-01-26T11:05:20.708Z,15.77
2023-01-26T11:07:50.656Z,15.90
2023-01-26T11:10:25.266Z,15.27
2023-01-26T11:13:07.169Z,13.23
2023-01-26T11:15:39.952Z,13.93
2023-01-26T11:18:16.868Z,15.37
2023-01-26T11:20:51.254Z,11.27
2023-01-26T11:23:29.256Z,11.33
2023-01-26T11:26:29.459Z,11.67
2023-01-26T11:29:10.639Z,10.13
2023-01-26T11:31:53.828Z,12.40
2023-01-26T11:34:30.353Z,11.00
2023-01-26T11:37:16.385Z,10.40
2023-01-26T11:39:58.242Z,11.57
2023-01-26T11:42:33.600Z,13.07
2023-01-26T11:45:18.704Z,11.37
2023-01-26T11:48:02.453Z,9.80
2023-01-26T11:50:36.016Z,8.73
2023-01-26T11:53:23.946Z,8.80
2023-01-26T11:56:05.342Z,8.83
2023-01-26T11:58:37.559Z,10.03
2023-01-26T12:01:12.309Z,9.73
2023-01-26T12:03:47.637Z,9.23
2023-01-26T12:06:19.181Z,8.30
2023-01-26T12:08:52.574Z,7.53
2023-01-26T12:11:25.305Z,8.40
2023-01-26T12:14:17.393Z,7.70
2023-01-26T12:17:16.819Z,7.53
2023-01-26T12:19:55.861Z,7.40
2023-01-26T12:22:32.091Z,9.80
2023-01-26T12:25:19.128Z,8.10
2023-01-26T12:27:54.289Z,8.57
2023-01-26T12:30:37.820Z,9.97
2023-01-26T12:33:06.201Z,7.83
2023-01-26T12:35:47.981Z,10.97
2023-01-26T12:38:20.307Z,8.47
2023-01-26T12:41:06.786Z,10.60
2023-01-26T12:43:57.974Z,8.70
2023-01-26T12:46:29.660Z,8.63
2023-01-26T12:49:02.645Z,9.13
2023-01-26T12:51:37.981Z,13.27
2023-01-26T12:54:16.112Z,7.73
2023-01-26T12:56:48.146Z,10.20
2023-01-26T12:59:38.368Z,8.20
2023-01-26T13:02:20.791Z,8.07
2023-01-26T13:04:49.759Z,8.17
2023-01-26T13:07:34.247Z,8.53
2023-01-26T13:10:30.627Z,7.73
2023-01-26T13:13:01.001Z,7.30
2023-01-26T13:15:30.578Z,6.77
2023-01-26T13:18:00.737Z,8.97
2023-01-26T13:20:51.151Z,8.40
2023-01-26T13:23:44.195Z,7.17
2023-01-26T13:26:52.352Z,9.73
2023-01-26T13:29:31.880Z,8.53
2023-01-26T13:32:23.532Z,9.30
2023-01-26T13:34:54.796Z,8.03
2023-01-26T13:37:27.480Z,9.90
2023-01-26T13:40:01.441Z,7.93
2023-01-26T13:42:51.467Z,9.30
2023-01-26T13:45:28.268Z,8.17
2023-01-26T13:47:58.925Z,9.13
2023-01-26T13:50:31.445Z,8.70
2023-01-26T13:52:59.684Z,9.97
2023-01-26T13:55:32.107Z,10.23
2023-01-26T13:58:13.040Z,14.67
2023-01-26T14:00:41.147Z,9.07
2023-01-26T14:03:21.971Z,10.57
2023-01-26T14:05:54.613Z,10.80
2023-01-26T14:08:23.285Z,10.00
2023-01-26T14:10:53.366Z,9.97
2023-01-26T14:13:25.060Z,11.10
2023-01-26T14:15:57.782Z,12.60
2023-01-26T14:18:26.454Z,12.10
2023-01-26T14:21:00.295Z,11.50
2023-01-26T14:23:29.208Z,11.60
2023-01-26T14:26:03.793Z,12.60
2023-01-26T14:28:34.600Z,13.00
2023-01-26T14:31:08.507Z,11.87
2023-01-26T14:33:38.218Z,12.87
2023-01-26T14:36:07.161Z,13.23
2023-01-26T14:38:43.979Z,17.23
2023-01-26T14:41:18.730Z,14.30
2023-01-26T14:43:46.623Z,15.07
2023-01-26T14:46:18.824Z,13.87
2023-01-26T14:48:49.935Z,15.63
2023-01-26T14:51:21.627Z,11.37
2023-01-26T14:53:51.476Z,15.30
2023-01-26T14:56:22.049Z,12.53
2023-01-26T14:58:52.913Z,14.43
2023-01-26T15:01:27.410Z,11.83
2023-01-26T15:04:01.558Z,12.63
2023-01-26T15:06:31.042Z,13.27
2023-01-26T15:09:05.200Z,13.20
2023-01-26T15:11:56.867Z,13.13
2023-01-26T15:14:37.440Z,15.10
2023-01-26T15:17:06.081Z,12.57
2023-01-26T15:19:41.286Z,14.33
2023-01-26T15:22:21.563Z,15.70
2023-01-26T15:25:01.204Z,15.43
2023-01-26T15:27:35.112Z,15.90
2023-01-26T15:30:06.475Z,15.93
2023-01-26T15:32:40.838Z,16.00
2023-01-26T15:35:20.250Z,15.17
2023-01-26T15:37:48.309Z,16.87
2023-01-26T15:40:16.344Z,18.43
2023-01-26T15:42:45.491Z,16.90
2023-01-26T15:45:24.318Z,17.73
2023-01-26T15:47:52.144Z,16.93
2023-01-26T15:50:27.927Z,16.50
2023-01-26T15:52:56.189Z,20.50
2023-01-26T15:55:29.034Z,17.00
2023-01-26T15:57:58.208Z,18.03
2023-01-26T16:00:26.148Z,18.33
2023-01-26T16:02:54.044Z,20.20
2023-01-26T16:05:24.420Z,20.27
2023-01-26T16:07:52.683Z,21.20
2023-01-26T16:10:20.772Z,19.33
2023-01-26T16:12:50.265Z,18.40
2023-01-26T16:15:32.430Z,17.07
2023-01-26T16:18:00.304Z,19.43
2023-01-26T16:20:28.132Z,19.93
2023-01-26T16:22:55.971Z,21.73
2023-01-26T16:25:26.860Z,18.07
2023-01-26T16:27:55.356Z,22.13
2023-01-26T16:30:25.146Z,24.40
2023-01-26T16:32:52.995Z,26.70
2023-01-26T16:35:23.486Z,42.23
2023-01-26T16:37:51.880Z,26.97
2023-01-26T16:40:20.452Z,32.23
2023-01-26T16:42:50.965Z,26.00
2023-01-26T16:45:20.915Z,25.87
2023-01-26T16:47:54.814Z,28.07
2023-01-26T16:50:22.891Z,19.77
2023-01-26T16:52:51.482Z,23.30
2023-01-26T16:55:20.081Z,21.03
2023-01-26T16:57:49.804Z,20.90
2023-01-26T17:00:20.351Z,19.00
2023-01-26T17:02:49.894Z,19.60
2023-01-26T17:05:22.211Z,38.40
2023-01-26T17:07:50.853Z,30.83
2023-01-26T17:10:22.399Z,30.20
2023-01-26T17:12:50.553Z,25.53
2023-01-26T17:15:18.422Z,22.40
2023-01-26T17:17:46.479Z,22.90
2023-01-26T17:20:19.322Z,17.83
2023-01-26T17:22:49.922Z,20.57
2023-01-26T17:25:19.035Z,21.97
2023-01-26T17:27:49.701Z,18.77
2023-01-26T17:30:18.543Z,22.73
2023-01-26T17:32:46.613Z,21.30
2023-01-26T17:35:15.637Z,26.70
2023-01-26T17:37:43.468Z,19.70
2023-01-26T17:40:14.026Z,21.30
2023-01-26T17:42:42.019Z,22.47
2023-01-26T17:45:11.059Z,22.17
2023-01-26T17:47:39.587Z,23.57
2023-01-26T17:50:08.568Z,21.37
2023-01-26T17:52:36.484Z,24.17
2023-01-26T17:55:07.094Z,21.80
2023-01-26T17:57:36.282Z,21.33
2023-01-26T18:00:04.981Z,21.50
2023-01-26T18:02:37.996Z,21.47
2023-01-26T18:05:06.874Z,22.37
2023-01-26T18:07:34.745Z,24.50
2023-01-26T18:10:02.645Z,22.60
2023-01-26T18:12:30.550Z,22.10
2023-01-26T18:14:59.719Z,19.73
2023-01-26T18:17:27.528Z,22.03
2023-01-26T18:19:55.334Z,22.73
2023-01-26T18:22:23.154Z,20.47
2023-01-26T18:24:51.016Z,20.57
2023-01-26T18:27:18.844Z,22.17
2023-01-26T18:29:47.468Z,25.57
2023-01-26T18:32:16.763Z,26.80
2023-01-26T18:34:44.601Z,26.33
2023-01-26T18:37:12.785Z,24.80
2023-01-26T18:39:40.688Z,22.20
2023-01-26T18:42:08.557Z,23.33
2023-01-26T18:44:36.446Z,21.57
2023-01-26T18:47:04.774Z,22.30
2023-01-26T18:49:34.367Z,25.00
2023-01-26T18:52:02.181Z,24.70
2023-01-26T18:54:30.807Z,26.73
2023-01-26T18:56:58.637Z,22.50
2023-01-26T18:59:26.692Z,24.37
2023-01-26T19:01:55.300Z,29.87
2023-01-26T19:04:23.155Z,28.60
2023-01-26T19:06:52.358Z,28.17
2023-01-26T19:09:21.324Z,22.67
2023-01-26T19:11:51.236Z,27.83
2023-01-26T19:14:19.324Z,27.30
2023-01-26T19:16:49.129Z,22.97
2023-01-26T19:19:17.173Z,23.37
2023-01-26T19:21:45.060Z,20.27
2023-01-26T19:24:14.767Z,22.87
2023-01-26T19:26:42.658Z,24.23
2023-01-26T19:29:11.254Z,22.03
2023-01-26T19:31:39.454Z,23.80
2023-01-26T19:34:13.160Z,21.53
2023-01-26T19:36:41.084Z,24.10
2023-01-26T19:39:09.380Z,23.37
2023-01-26T19:41:39.758Z,21.43
2023-01-26T19:44:07.652Z,18.60
2023-01-26T19:46:35.850Z,22.33
2023-01-26T19:49:04.788Z,22.00
2023-01-26T19:51:33.033Z,22.60
2023-01-26T19:54:01.095Z,28.50
2023-01-26T19:56:30.638Z,26.30
2023-01-26T19:59:01.519Z,23.57
2023-01-26T20:01:30.985Z,24.60
2023-01-26T20:04:01.023Z,27.83
2023-01-26T20:06:30.810Z,24.33
2023-01-26T20:08:59.628Z,18.83
2023-01-26T20:11:29.464Z,21.40
2023-01-26T20:13:59.677Z,24.10
2023-01-26T20:16:28.832Z,21.67
2023-01-26T20:18:57.030Z,25.63
2023-01-26T20:21:25.269Z,27.10
2023-01-26T20:23:55.712Z,24.30
2023-01-26T20:26:24.674Z,23.30
2023-01-26T20:28:53.737Z,26.43
2023-01-26T20:31:25.336Z,29.67
2023-01-26T20:33:55.496Z,28.27
2023-01-26T20:36:26.192Z,22.00
2023-01-26T20:38:54.502Z,32.23
2023-01-26T20:41:24.241Z,22.53
2023-01-26T20:43:59.765Z,23.97
2023-01-26T20:46:32.164Z,25.30
2023-01-26T20:49:00.775Z,23.83
2023-01-26T20:51:30.804Z,24.53
2023-01-26T20:53:59.274Z,24.50
2023-01-26T20:56:27.754Z,25.03
2023-01-26T20:58:56.607Z,22.13
2023-01-26T21:01:25.361Z,28.10
2023-01-26T21:03:55.259Z,25.17
2023-01-26T21:06:24.153Z,25.10
2023-01-26T21:08:55.005Z,24.23
2023-01-26T21:11:24.875Z,20.43
2023-01-26T21:13:52.791Z,20.07
2023-01-26T21:16:20.878Z,20.83
2023-01-26T21:18:49.309Z,19.27
2023-01-26T21:21:18.756Z,21.17
2023-01-26T21:23:46.874Z,25.07
2023-01-26T21:26:16.979Z,23.43
2023-01-26T21:28:45.038Z,26.33
2023-01-26T21:31:15.894Z,28.80
2023-01-26T21:33:45.418Z,24.27
2023-01-26T21:36:15.786Z,21.50
2023-01-26T21:38:47.018Z,22.13
2023-01-26T21:41:34.563Z,23.60
2023-01-26T21:44:03.786Z,20.37
2023-01-26T21:46:32.054Z,24.20
2023-01-26T21:49:00.441Z,23.73
2023-01-26T21:51:46.173Z,24.03
2023-01-26T21:54:15.847Z,23.47
2023-01-26T21:56:43.998Z,23.07
2023-01-26T21:59:14.532Z,22.13
2023-01-26T22:01:43.873Z,20.17
2023-01-26T22:04:14.650Z,24.60
2023-01-26T22:06:42.618Z,21.27
2023-01-26T22:09:12.619Z,19.93
2023-01-26T22:11:41.943Z,19.87
2023-01-26T22:14:15.240Z,19.60
2023-01-26T22:16:43.627Z,21.27
2023-01-26T22:19:12.107Z,18.77
2023-01-26T22:21:40.578Z,20.20
2023-01-26T22:24:11.736Z,19.33
2023-01-26T22:26:41.480Z,18.17
2023-01-26T22:29:11.319Z,20.10
2023-01-26T22:31:39.190Z,21.63
2023-01-26T22:34:07.115Z,18.93
2023-01-26T22:36:34.992Z,18.33
2023-01-26T22:39:02.867Z,19.73
2023-01-26T22:41:31.645Z,22.27
2023-01-26T22:44:01.303Z,20.47
2023-01-26T22:46:30.978Z,19.77
2023-01-26T22:48:59.830Z,22.90
2023-01-26T22:51:29.753Z,20.07
2023-01-26T22:53:58.965Z,21.13
2023-01-26T22:56:27.772Z,18.67
2023-01-26T22:58:59.466Z,18.90
